x

Long Island - 30 Nm South Of Islip, Ny (44025) Wave Buoy

3:50am - Tue 21st Feb 2017 All times are EST. -5 hours from GMT.

  • Sig Wave height 2.0ft
  • Swell Direction
  • Peak Period 4s
  • Average Period 3s
  • Wind
    13mph, 16mph gusts
  • Sea Temp 42°f
  • Air Temp 40°f
  • Sea Pressure 1027.2mb
  • Long Island - 30 Nm South Of Islip, Ny
  • Long Island - 30 Nm South Of Islip, Ny

More Historic Weather Station data

Upgrade to MSW Pro to gain access to the past 30 days of data for over 8000 Wavebouys and Weather Stations around the globe.

Join Pro

Comparision Forecast

View Surf forecast
   
Tue 02/21 3:50am 2ft 4s 3s 13 16 mph 1027.2mb 42f 40f
2:50am 2.5ft 4s 4s 13 16 mph 1027.5mb 42f 40f
1:50am 2.5ft 4s 3s 16 18 mph 1027.2mb 42f 40f
12:50am 2.5ft 4s 4s 18 20 mph 1027.1mb 41f 40f
Mon 02/20 11:50pm 2.5ft 4s 4s 20 22 mph 1026.9mb 41f 41f
10:50pm 3ft 4s 4s 20 25 mph 1026.5mb 41f 41f
9:50pm 3.5ft 5s 4s 20 25 mph 1026.1mb 41f 42f
8:50pm 2.5ft 4s 3s 25 29 mph 1025.4mb 41f 43f
7:50pm 2.5ft 3s 3s 18 22 mph 1025.3mb 41f 43f
6:50pm 2ft 3s 3s 16 18 mph 1024.6mb 41f 44f
5:50pm 1.3ft 8s 4s 16 18 mph 1023.4mb 42f 45f
4:50pm 1.3ft 9s 4s 7
mph
1022.6mb 41f 44f
3:50pm 1.3ft 8s 4s 7
mph
1021.6mb 41f 44f
2:50pm 1.6ft 8s 4s 11 13 mph 1021mb 41f 45f
1:50pm 1.6ft 8s 4s 7
mph
1021.1mb 41f 43f
12:50pm 1.6ft 8s 4s 9 11 mph 1021.4mb 41f 43f
11:50am 1.6ft 8s 4s 11
mph
1021.9mb 40f 42f
10:50am 1.6ft 10s 4s 11 13 mph 1021.8mb 40f 42f
9:50am 2ft 6s 4s 9 11 mph 1021.4mb 40f 41f
8:50am 2ft 7s 4s 11 13 mph 1020.8mb 40f 42f
7:50am 2ft 8s 4s 13 16 mph 1020mb 40f 43f
6:50am 2ft 7s 4s 13 16 mph 1019.2mb 40f 43f
5:50am 2ft 7s 5s 13
mph
1017.9mb 40f 44f
4:50am 2ft 7s 6s 11
mph
1017.3mb 40f 44f
3:50am 2ft 7s 5s 9
mph
1016.4mb 40f 44f
2:50am 2.5ft 7s 5s 9
mph
1015.8mb 40f 45f
1:50am 2.5ft 7s 5s 11 13 mph 1015.3mb 40f 46f
12:50am 2.5ft 7s 6s 16 18 mph 1014.9mb 40f 48f
Sun 02/19 11:50pm 2.5ft 7s 6s 7 9 mph 1014.4mb 40f 45f
10:50pm 2.5ft 8s 6s 9 11 mph 1013.9mb 40f 47f
9:50pm 2.5ft 7s 6s 9
mph
1013.6mb 41f 47f
8:50pm 2.5ft 7s 6s 7 9 mph 1012.9mb 41f 48f
7:50pm 2.5ft 7s 6s 7 9 mph 1012.3mb 41f 49f
6:50pm 3.5ft 8s 6s 11 13 mph 1011.8mb 41f 50f
5:50pm 3.5ft 8s 6s 11
mph
1010.9mb 41f 47f
4:50pm 3.5ft 7s 6s 9 11 mph 1010.4mb 40f 46f
3:50pm 3ft 7s 6s 11
mph
1009.6mb 40f 47f
2:50pm 2.5ft 7s 5s 9
mph
1009mb 40f 47f
1:50pm 2.5ft 6s 5s 11
mph
1008.8mb 40f 48f
12:50pm 2.5ft 6s 5s 11
mph
1009.2mb 40f 47f
11:50am 2.5ft 6s 5s 11 13 mph 1009.5mb 40f 46f
10:50am 2.5ft 5s 5s 11 13 mph 1009.6mb 40f 47f
9:50am 2.5ft 5s 5s 11 13 mph 1009.7mb 40f 45f
8:50am 2.5ft 5s 5s 9
mph
1009.5mb 40f 45f
7:50am 2.5ft 5s 4s 9
mph
1008.8mb 40f 44f
6:50am 2.5ft 6s 4s 4 7 mph 1007.5mb 40f 44f
5:50am 3ft 5s 4s 13
mph
1007mb 40f 46f
4:50am 3ft 5s 4s 11 13 mph 1005.8mb 40f 48f
3:50am 3.5ft 6s 4s 13 16 mph 1006.1mb 40f 47f
2:50am 3.5ft 5s 4s 18 20 mph 1005.3mb 40f 48f
1:50am 3.5ft 5s 4s 16 18 mph 1005mb 40f 47f
12:50am 3.5ft 5s 4s 18 20 mph 1004.7mb 40f 46f
Sat 02/18 11:50pm 3.5ft 5s 4s 16 18 mph 1004.7mb 40f 46f
10:50pm 3.5ft 5s 4s 13 16 mph 1004.8mb 40f 45f
9:50pm 3.5ft 5s 4s 16 18 mph 1004.9mb 40f 45f
8:50pm 3.5ft 5s 4s 18 20 mph 1005.1mb 40f 45f
7:50pm 3.5ft 5s 4s 20 22 mph 1005mb 40f 46f
6:50pm 3.5ft 5s 4s 18 20 mph 1005.6mb 40f 46f
5:50pm 3ft 4s 4s 18 20 mph 1005.3mb 40f 46f
4:50pm 2.5ft 4s 4s 20 22 mph 1005mb 41f 46f
3:50pm 2.5ft 4s 4s 18 20 mph 1005.4mb 41f 44f
2:50pm 2.5ft 4s 4s 16 20 mph 1005.7mb 41f 44f
1:50pm 2.5ft 4s 4s 16 18 mph 1006.3mb 41f 44f
12:50pm 2.5ft 4s 4s 13 18 mph 1007.2mb 41f 44f
11:50am 2ft 3s 4s 13 16 mph 1009.1mb 41f 44f
10:50am 1.3ft 9s 4s 13 16 mph 1010.7mb 41f 43f
9:50am 1.3ft 3s 4s 13 16 mph 1011.5mb 41f 42f
8:50am 1.3ft 10s 4s 9
mph
1011.5mb 41f 42f
7:50am 1.3ft 11s 4s 9 11 mph 1011.5mb 41f 41f
6:50am 1.3ft 9s 4s 11 13 mph 1011.7mb 41f 40f
5:50am 1.6ft 4s 4s 9
mph
1011.9mb 41f 41f
4:50am 2ft 4s 4s 7
mph
1012.1mb 41f 40f
3:50am 2ft 5s 4s 7 9 mph 1012.2mb 41f 40f
2:50am 2.5ft 4s 4s 7 9 mph 1012.7mb 41f 40f
1:50am 2.5ft 5s 4s 11 13 mph 1012.3mb 41f 40f
12:50am 2.5ft 4s 4s 11 13 mph 1012.3mb 41f 40f
Fri 02/17 11:50pm 2ft 4s 4s 11 13 mph 1012.6mb 41f 40f
10:50pm 2ft 4s 4s 11 13 mph 1012.6mb 41f 40f
9:50pm 1.6ft 4s 4s 11 13 mph 1012.4mb 41f 41f
8:50pm 2ft 4s 4s 13 16 mph 1011.8mb 41f 41f
7:50pm 2.5ft 4s 4s 11 16 mph 1011.6mb 41f 41f
6:50pm 2.5ft 4s 4s 13 18 mph 1011mb 41f 41f
5:50pm 2.5ft 4s 4s 16 18 mph 1010.3mb 42f 40f
4:50pm 3ft 4s 4s 18 20 mph 1009.3mb 42f 40f
3:50pm 3.5ft 5s 4s 22 25 mph 1009.1mb 42f 38f
2:50pm 3.5ft 5s 4s 22 27 mph 1008.7mb 42f 37f
1:50pm 4ft 5s 4s 20 25 mph 1009mb 42f 35f
12:50pm 4ft 5s 4s 20 25 mph 1009.7mb 42f 34f
11:50am 4.5ft 5s 4s 20 27 mph 1010mb 42f 33f
10:50am 4.5ft 5s 4s 22 27 mph 1010.7mb 42f 31f